Japan Airlines Virtual Airport Information Service

Auckland Airport

ICAO: NZAA Country: New Zealand
Latitude: -37.008 Longitude: 174.792
Latest Arrival : CSN335 (1) (ZGGG-NZAA) Latest Departure : JALJUMP (NZAA-EGLL)


WX CaptureLIVE
Data provided by noaa.gov | Fetched at 17:10:01

METAR : NZAA 291630Z AUTO 25011KT 9999 -RA FEW025/// BKN060/// 10/07 Q1015 TEMPO 6000 SHRA

TAF : NZAA 291217Z 2912/3012 24012KT 9999 -SHRA SCT035 BKN050 BECMG 3006/3008 16005KT


Runway Data for NZAA
Data provided by openaviationdata.com

Runway ID Mag Var Hdg Length Elevation Surface ILS Freq ILS Id ILS Slope
05R 20 50° 11925 ft 23 ft Concrete 110.3 IAA 3
23L 20 230° 11925 ft 23 ft Concrete 109.9 IMG 3

Auckland Airport, New Zealand
Use only for reference purposes



Not for navigational purposes.